Time;durP1;ratioP1;P1;durP2;ratioP2;P2;SDS_P1;SDS_P2;PMS_P1;PMS_P2;Temp;Humidity;BMP_temperature;BMP_pressure;BME280_temperature;BME280_humidity;BME280_pressure;Samples;Min_cycle;Max_cycle;Signal;HPM_P1;HPM_P2
2023/12/24 00:02:10;;;;;;;15.00;9.30;;;;;;;1.48;100.00;98669.60;105919;1253;59615;-80
2023/12/24 00:04:38;;;;;;;21.70;9.70;;;;;;;1.48;100.00;98668.94;105812;1253;72970;-81
2023/12/24 00:07:05;;;;;;;19.90;10.70;;;;;;;1.46;100.00;98678.30;105934;1255;63963;-80
2023/12/24 00:09:32;;;;;;;24.70;11.30;;;;;;;1.44;100.00;98681.18;105813;1252;72694;-82
2023/12/24 00:11:59;;;;;;;21.30;11.20;;;;;;;1.40;100.00;98684.67;107447;1253;61221;-79
2023/12/24 00:14:25;;;;;;;22.00;11.30;;;;;;;1.34;100.00;98691.17;106360;1253;59524;-81
2023/12/24 00:16:52;;;;;;;24.00;11.10;;;;;;;1.29;100.00;98692.65;105887;1253;73080;-83
2023/12/24 00:19:20;;;;;;;19.20;10.60;;;;;;;1.26;100.00;98697.48;105874;1255;63851;-84
2023/12/24 00:21:46;;;;;;;17.50;10.10;;;;;;;1.23;100.00;98703.64;105857;1253;71217;-81
2023/12/24 00:24:13;;;;;;;17.20;10.70;;;;;;;1.20;100.00;98708.63;105874;1252;61237;-80
2023/12/24 00:26:40;;;;;;;17.60;10.00;;;;;;;1.17;100.00;98715.35;105899;1256;60118;-83
2023/12/24 00:29:07;;;;;;;16.80;9.60;;;;;;;1.15;100.00;98718.20;106189;1253;73164;-81
2023/12/24 00:31:34;;;;;;;20.30;11.00;;;;;;;1.13;100.00;98722.05;106111;1255;62359;-82
2023/12/24 00:34:01;;;;;;;18.80;11.70;;;;;;;1.13;100.00;98721.02;106502;1253;72667;-79
2023/12/24 00:36:28;;;;;;;18.70;11.80;;;;;;;1.14;100.00;98724.61;106324;1255;61007;-82
2023/12/24 00:38:56;;;;;;;23.40;14.00;;;;;;;1.13;100.00;98723.63;106028;1254;60301;-82
2023/12/24 00:41:23;;;;;;;21.50;10.80;;;;;;;1.12;100.00;98726.95;105807;1253;72886;-81
2023/12/24 00:43:50;;;;;;;20.60;10.90;;;;;;;1.10;100.00;98725.66;106050;1253;62291;-82
2023/12/24 00:46:17;;;;;;;20.30;11.70;;;;;;;1.08;100.00;98730.45;105737;1253;72605;-81
2023/12/24 00:48:44;;;;;;;19.70;10.60;;;;;;;1.07;100.00;98732.55;105978;1252;61270;-82
2023/12/24 00:51:10;;;;;;;20.40;11.00;;;;;;;1.04;100.00;98734.06;105794;1253;59989;-81
2023/12/24 00:53:38;;;;;;;18.50;10.40;;;;;;;1.01;100.00;98733.17;105856;1252;71778;-81
2023/12/24 00:56:05;;;;;;;17.30;11.70;;;;;;;1.01;100.00;98732.16;105859;1253;62355;-81
2023/12/24 00:58:32;;;;;;;19.80;10.40;;;;;;;0.99;100.00;98732.08;105819;1256;72646;-81
2023/12/24 01:01:00;;;;;;;17.90;10.10;;;;;;;1.02;100.00;98733.84;105868;1255;61300;-81
2023/12/24 01:03:27;;;;;;;19.50;9.70;;;;;;;1.05;100.00;98735.41;106071;1253;60088;-80
2023/12/24 11:01:59;;;;;;;7.80;5.10;;;;;;;3.46;100.00;99171.89;102980;1292;600368;-80
2023/12/24 11:04:46;;;;;;;7.20;4.60;;;;;;;3.38;100.00;99174.00;105182;1266;60947;-82
2023/12/24 11:07:33;;;;;;;9.00;6.40;;;;;;;3.30;100.00;99168.20;105453;1260;60140;-80
2023/12/24 11:10:01;;;;;;;8.90;5.40;;;;;;;3.28;100.00;99170.77;105532;1260;72096;-82
2023/12/24 11:12:37;;;;;;;11.30;6.30;;;;;;;3.25;100.00;99169.02;105704;1260;62471;-81
2023/12/24 11:15:05;;;;;;;8.50;6.20;;;;;;;3.22;100.00;99173.66;105342;1257;153695;-81
2023/12/24 11:17:36;;;;;;;10.30;6.90;;;;;;;3.19;100.00;99177.48;105426;1260;62183;-81
2023/12/24 11:20:16;;;;;;;11.10;6.70;;;;;;;3.16;100.00;99181.41;105538;1261;59323;-81
2023/12/24 11:23:04;;;;;;;12.30;6.20;;;;;;;3.10;100.00;99185.48;105372;1261;73045;-81
2023/12/24 11:25:46;;;;;;;9.10;6.20;;;;;;;3.11;100.00;99186.16;105372;1262;63832;-80
2023/12/24 11:28:36;;;;;;;10.70;6.10;;;;;;;3.11;100.00;99192.89;105531;1263;74753;-83
2023/12/24 11:31:04;;;;;;;7.80;5.30;;;;;;;3.11;100.00;99190.46;105567;1262;61055;-81
2023/12/24 11:33:36;;;;;;;9.10;5.30;;;;;;;3.13;100.00;99190.53;105554;1262;59640;-82
2023/12/24 11:36:09;;;;;;;10.00;7.20;;;;;;;3.13;100.00;99189.84;105574;1260;72116;-83
2023/12/24 11:38:36;;;;;;;15.50;7.20;;;;;;;3.14;100.00;99194.50;105567;1256;63751;-80
2023/12/24 11:41:07;;;;;;;14.90;8.30;;;;;;;3.14;100.00;99201.39;105559;1262;71456;-80
2023/12/24 11:43:37;;;;;;;10.10;7.20;;;;;;;3.13;100.00;99209.73;107390;1257;60930;-80
2023/12/24 11:46:05;;;;;;;13.70;7.40;;;;;;;3.09;100.00;99214.55;106833;1259;60147;-78
2023/12/24 11:48:33;;;;;;;12.00;7.20;;;;;;;3.06;100.00;99214.91;105962;1262;71698;-84
2023/12/24 11:51:05;;;;;;;12.30;7.00;;;;;;;3.04;100.00;99218.45;105359;1262;63710;-80
2023/12/24 11:53:37;;;;;;;10.20;7.30;;;;;;;3.04;100.00;99218.83;105355;1262;72799;-82
2023/12/24 11:56:10;;;;;;;11.70;7.80;;;;;;;3.03;100.00;99223.69;105661;1259;59688;-80
2023/12/24 11:58:39;;;;;;;10.10;7.10;;;;;;;3.03;100.00;99227.11;105571;1257;60695;-82
2023/12/24 12:01:06;;;;;;;14.40;8.80;;;;;;;3.05;100.00;99238.63;105530;1257;71743;-82
2023/12/24 12:03:36;;;;;;;10.40;6.30;;;;;;;3.03;100.00;99237.30;105558;1258;62161;-81
2023/12/24 12:06:04;;;;;;;11.30;6.60;;;;;;;3.01;100.00;99244.36;105742;1258;71343;-81
2023/12/24 12:08:32;;;;;;;10.90;7.70;;;;;;;2.99;100.00;99245.83;105779;1259;60635;-80
2023/12/24 12:10:59;;;;;;;8.30;6.40;;;;;;;2.94;100.00;99249.69;105673;1257;59608;-81
2023/12/24 12:13:29;;;;;;;9.20;6.80;;;;;;;2.90;100.00;99248.35;105695;1257;75513;-82
2023/12/24 12:15:57;;;;;;;12.20;7.10;;;;;;;2.86;100.00;99249.05;105557;1257;62749;-83
2023/12/24 12:18:25;;;;;;;9.10;6.20;;;;;;;2.84;100.00;99251.75;105611;1260;71470;-81
2023/12/24 12:20:53;;;;;;;9.00;6.80;;;;;;;2.81;100.00;99250.67;105683;1259;59747;-80
2023/12/24 12:23:21;;;;;;;15.50;9.70;;;;;;;2.78;100.00;99249.61;105593;1262;60108;-81
2023/12/24 12:25:48;;;;;;;11.70;8.40;;;;;;;2.76;100.00;99254.05;105583;1263;73157;-83
2023/12/24 12:28:15;;;;;;;14.00;7.40;;;;;;;2.73;100.00;99252.66;105585;1257;63866;-82
2023/12/24 12:30:44;;;;;;;16.30;9.30;;;;;;;2.69;100.00;99257.51;105697;1262;71146;-81
2023/12/24 12:33:12;;;;;;;13.60;8.20;;;;;;;2.65;100.00;99260.31;106053;1257;59669;-78
2023/12/24 12:35:40;;;;;;;15.10;8.40;;;;;;;2.63;100.00;99263.52;105561;1262;59727;-80
2023/12/24 12:38:07;;;;;;;16.20;8.90;;;;;;;2.63;100.00;99266.76;106031;1258;73080;-80
2023/12/24 12:40:35;;;;;;;10.80;7.20;;;;;;;2.64;100.00;99268.29;107079;1257;62589;-79
2023/12/24 12:43:13;;;;;;;13.20;6.70;;;;;;;2.60;100.00;99270.20;107519;1256;71482;-79
2023/12/24 12:45:41;;;;;;;11.00;7.80;;;;;;;2.56;100.00;99280.39;107464;1257;59701;-80
2023/12/24 12:48:09;;;;;;;10.60;6.20;;;;;;;2.53;100.00;99281.94;106925;1260;59541;-78
2023/12/24 12:50:41;;;;;;;10.80;6.50;;;;;;;2.50;100.00;99283.09;106414;1256;73007;-80
2023/12/24 12:53:09;;;;;;;8.40;5.70;;;;;;;2.46;100.00;99287.06;106557;1257;62526;-80
2023/12/24 12:55:37;;;;;;;9.30;5.50;;;;;;;2.43;100.00;99290.00;106564;1257;71975;-78
2023/12/24 12:58:16;;;;;;;8.70;5.20;;;;;;;2.39;100.00;99295.54;106527;1257;59582;-79
2023/12/24 13:00:47;;;;;;;12.50;5.60;;;;;;;2.34;100.00;99300.94;106112;1257;59734;-81
2023/12/24 13:03:15;;;;;;;12.50;7.40;;;;;;;2.32;100.00;99305.52;106005;1257;72896;-80
2023/12/24 13:05:44;;;;;;;9.80;6.70;;;;;;;2.30;100.00;99308.55;105936;1256;62225;-81
2023/12/24 13:08:16;;;;;;;9.90;6.00;;;;;;;2.27;100.00;99312.33;105634;1260;71443;-81
2023/12/24 13:10:44;;;;;;;8.00;5.40;;;;;;;2.22;100.00;99315.96;105776;1261;59948;-80
2023/12/24 13:13:18;;;;;;;8.60;5.20;;;;;;;2.19;100.00;99312.83;105558;1257;59554;-79
2023/12/24 13:15:46;;;;;;;7.00;4.90;;;;;;;2.16;100.00;99324.36;105612;1256;73833;-81
2023/12/24 13:18:21;;;;;;;7.80;5.80;;;;;;;2.13;100.00;99326.61;105376;1263;64271;-80
2023/12/24 13:20:50;;;;;;;8.90;5.80;;;;;;;2.10;100.00;99327.94;105837;1258;72726;-81
2023/12/24 13:23:19;;;;;;;10.10;6.20;;;;;;;2.06;100.00;99328.42;105888;1251;60107;-81
2023/12/24 13:25:47;;;;;;;14.30;7.60;;;;;;;2.06;100.00;99332.08;106270;1253;59690;-80
2023/12/24 13:28:14;;;;;;;11.70;7.10;;;;;;;2.06;100.00;99334.32;106126;1253;73004;-81
2023/12/24 13:30:47;;;;;;;13.20;8.80;;;;;;;2.05;100.00;99338.50;105883;1256;63856;-82
2023/12/24 13:33:15;;;;;;;14.30;8.00;;;;;;;2.03;100.00;99342.88;105765;1254;72646;-81
2023/12/24 13:35:43;;;;;;;17.30;9.70;;;;;;;2.03;100.00;99343.95;105582;1256;59793;-81
2023/12/24 13:38:18;;;;;;;16.40;9.10;;;;;;;2.03;100.00;99345.32;105844;1253;60213;-82
2023/12/24 13:41:03;;;;;;;18.80;10.70;;;;;;;2.07;100.00;99350.13;102871;1289;600282;-81
2023/12/24 13:43:31;;;;;;;16.30;9.00;;;;;;;2.02;100.00;99352.92;105028;1264;61016;-81
2023/12/24 13:45:58;;;;;;;18.40;9.40;;;;;;;1.98;100.00;99349.84;104960;1273;59305;-80
2023/12/24 13:48:26;;;;;;;17.00;9.00;;;;;;;1.96;100.00;99354.62;104963;1279;71197;-80
2023/12/24 13:50:54;;;;;;;15.80;9.60;;;;;;;1.95;100.00;99355.48;105006;1270;63615;-81
2023/12/24 13:53:23;;;;;;;16.90;9.20;;;;;;;1.93;100.00;99362.80;105349;1258;71161;-80
2023/12/24 13:55:59;;;;;;;15.20;8.70;;;;;;;1.91;100.00;99370.50;105555;1258;62688;-81
2023/12/24 13:58:31;;;;;;;17.40;10.20;;;;;;;1.87;100.00;99382.91;105600;1254;59238;-79
2023/12/24 14:00:58;;;;;;;22.80;11.80;;;;;;;1.84;100.00;99390.29;105913;1251;71213;-80
2023/12/24 14:03:26;;;;;;;14.30;9.80;;;;;;;1.81;100.00;99396.63;105938;1251;62465;-81
2023/12/24 14:05:56;;;;;;;14.30;9.40;;;;;;;1.80;100.00;99404.41;105852;1257;70410;-83
2023/12/24 14:08:25;;;;;;;18.20;10.40;;;;;;;1.75;100.00;99407.20;105898;1259;60165;-80
2023/12/24 14:10:53;;;;;;;15.50;9.00;;;;;;;1.70;100.00;99408.30;105927;1257;59907;-80
2023/12/24 14:13:21;;;;;;;14.40;9.60;;;;;;;1.62;100.00;99407.25;105858;1257;70933;-82
2023/12/24 14:15:49;;;;;;;19.10;12.60;;;;;;;1.57;100.00;99412.45;105805;1257;63733;-79
2023/12/24 14:18:17;;;;;;;16.30;11.30;;;;;;;1.54;100.00;99417.75;105766;1257;72437;-81
2023/12/24 14:20:45;;;;;;;16.00;11.20;;;;;;;1.54;100.00;99420.17;105853;1256;59728;-79
2023/12/24 14:23:13;;;;;;;17.70;11.20;;;;;;;1.54;100.00;99424.98;105831;1257;59817;-81
2023/12/24 14:25:40;;;;;;;13.50;9.40;;;;;;;1.54;100.00;99428.60;105843;1257;73142;-81
2023/12/24 14:28:08;;;;;;;15.10;9.10;;;;;;;1.54;100.00;99433.27;105864;1255;63909;-81
2023/12/24 14:30:36;;;;;;;16.90;9.80;;;;;;;1.54;100.00;99434.83;106079;1254;75313;-82
2023/12/24 14:33:03;;;;;;;18.30;11.30;;;;;;;1.54;100.00;99439.27;105903;1251;60895;-82
2023/12/24 14:35:32;;;;;;;21.50;13.70;;;;;;;1.54;100.00;99441.50;106121;1256;59644;-82
2023/12/24 14:38:00;;;;;;;21.10;12.40;;;;;;;1.55;100.00;99447.15;105982;1256;71984;-81
2023/12/24 14:40:29;;;;;;;26.20;13.40;;;;;;;1.54;100.00;99457.20;105761;1252;62842;-82
2023/12/24 14:42:56;;;;;;;24.30;13.60;;;;;;;1.51;100.00;99455.58;105852;1251;72713;-81
2023/12/24 14:45:24;;;;;;;29.10;15.60;;;;;;;1.50;100.00;99461.68;105977;1257;59661;-80
2023/12/24 14:47:54;;;;;;;29.00;16.70;;;;;;;1.49;100.00;99463.11;105903;1251;59637;-81
2023/12/24 14:50:22;;;;;;;25.70;15.00;;;;;;;1.49;100.00;99468.96;106157;1257;72851;-78
2023/12/24 14:52:50;;;;;;;24.40;13.20;;;;;;;1.49;100.00;99472.39;106282;1251;62404;-82
2023/12/24 14:55:18;;;;;;;21.60;13.40;;;;;;;1.50;100.00;99478.92;105939;1251;70818;-82
2023/12/24 14:57:46;;;;;;;24.00;13.90;;;;;;;1.48;100.00;99479.16;107209;1251;60896;-82
2023/12/24 15:00:14;;;;;;;21.20;11.80;;;;;;;1.43;100.00;99485.36;106504;1251;60091;-81
2023/12/24 15:02:41;;;;;;;22.40;11.60;;;;;;;1.37;100.00;99487.16;105878;1251;71544;-81
2023/12/24 15:05:10;;;;;;;24.70;12.70;;;;;;;1.31;100.00;99493.08;105938;1257;62788;-82
2023/12/24 15:07:38;;;;;;;24.30;13.10;;;;;;;1.28;100.00;99497.35;105809;1254;71397;-83
2023/12/24 15:10:07;;;;;;;20.10;12.50;;;;;;;1.24;100.00;99501.80;105812;1250;59731;-82
2023/12/24 15:12:34;;;;;;;25.90;12.40;;;;;;;1.22;100.00;99501.54;105895;1256;60582;-82
2023/12/24 15:15:02;;;;;;;24.50;12.40;;;;;;;1.21;100.00;99500.02;106316;1251;72986;-81
2023/12/24 15:17:31;;;;;;;24.10;12.40;;;;;;;1.21;100.00;99500.40;109650;1251;63585;-80
2023/12/24 15:20:00;;;;;;;27.70;15.60;;;;;;;1.19;100.00;99505.77;109662;1250;72684;-80
2023/12/24 15:22:29;;;;;;;37.00;17.20;;;;;;;1.17;100.00;99513.27;109641;1251;61347;-79
2023/12/24 15:24:56;;;;;;;32.50;16.90;;;;;;;1.14;100.00;99517.67;109647;1251;58895;-79
2023/12/24 15:27:24;;;;;;;26.40;15.10;;;;;;;1.13;100.00;99526.35;109658;1251;72723;-81
2023/12/24 15:29:52;;;;;;;23.70;13.40;;;;;;;1.11;100.00;99529.69;109678;1251;62303;-79
2023/12/24 15:32:19;;;;;;;22.70;13.10;;;;;;;1.11;100.00;99531.08;109580;1251;72399;-82
2023/12/24 15:34:47;;;;;;;20.50;13.70;;;;;;;1.11;100.00;99529.52;109622;1253;59358;-82
2023/12/24 15:37:15;;;;;;;30.10;14.40;;;;;;;1.12;100.00;99533.44;109605;1252;60601;-80
2023/12/24 15:39:43;;;;;;;22.10;13.10;;;;;;;1.12;100.00;99532.58;109642;1250;71331;-80
2023/12/24 15:42:10;;;;;;;21.60;12.50;;;;;;;1.15;100.00;99533.33;109682;1251;63696;-83
2023/12/24 15:44:38;;;;;;;18.00;11.20;;;;;;;1.19;100.00;99534.37;109697;1250;71273;-79
2023/12/24 15:47:05;;;;;;;15.30;10.10;;;;;;;1.22;100.00;99539.41;109651;1250;61005;-80
2023/12/24 15:49:34;;;;;;;17.30;9.50;;;;;;;1.25;100.00;99541.71;109747;1250;60916;-79
2023/12/24 15:52:02;;;;;;;20.20;10.60;;;;;;;1.29;100.00;99546.21;109651;1250;73111;-82
2023/12/24 15:54:30;;;;;;;19.70;11.30;;;;;;;1.34;100.00;99554.45;109660;1251;63660;-79
2023/12/24 15:56:58;;;;;;;20.00;11.40;;;;;;;1.39;100.00;99554.60;109646;1250;71405;-81
2023/12/24 15:59:26;;;;;;;15.70;11.10;;;;;;;1.42;100.00;99559.95;109631;1253;63282;-80
2023/12/24 16:01:53;;;;;;;15.70;9.30;;;;;;;1.46;100.00;99566.02;109609;1250;60231;-81
2023/12/24 16:04:21;;;;;;;12.60;7.40;;;;;;;1.49;100.00;99572.98;109594;1252;73018;-80
2023/12/24 16:06:48;;;;;;;13.10;6.80;;;;;;;1.49;100.00;99577.44;109710;1250;64074;-81
2023/12/24 16:09:16;;;;;;;14.50;7.20;;;;;;;1.48;100.00;99578.00;109638;1250;71414;-82
2023/12/24 16:11:44;;;;;;;13.80;8.00;;;;;;;1.48;100.00;99580.27;109595;1250;59791;-80
2023/12/24 16:14:12;;;;;;;11.60;6.40;;;;;;;1.46;100.00;99582.71;109619;1250;59281;-81
2023/12/24 16:16:39;;;;;;;10.10;6.10;;;;;;;1.46;100.00;99586.01;109642;1250;71820;-82
2023/12/24 16:19:07;;;;;;;10.00;7.00;;;;;;;1.46;100.00;99590.66;109649;1250;62385;-82
2023/12/24 16:21:39;;;;;;;13.50;8.50;;;;;;;1.45;100.00;99590.36;109682;1250;70968;-82
2023/12/24 16:24:07;;;;;;;12.30;7.90;;;;;;;1.44;100.00;99591.90;109595;1250;60852;-80
2023/12/24 16:26:35;;;;;;;15.40;7.90;;;;;;;1.43;100.00;99592.49;109844;1249;58743;-83
2023/12/24 16:29:03;;;;;;;15.70;9.00;;;;;;;1.39;100.00;99596.94;109783;1253;71801;-79
2023/12/24 16:31:30;;;;;;;15.60;8.50;;;;;;;1.37;100.00;99602.71;109899;1250;65991;-83
2023/12/24 16:33:58;;;;;;;16.50;8.30;;;;;;;1.36;100.00;99604.80;109742;1252;71396;-80
2023/12/24 16:36:25;;;;;;;17.00;10.10;;;;;;;1.37;100.00;99609.78;109628;1250;60871;-83
2023/12/24 16:38:53;;;;;;;15.80;9.50;;;;;;;1.37;100.00;99615.80;109929;1250;62145;-83
2023/12/24 16:41:22;;;;;;;15.20;10.30;;;;;;;1.37;100.00;99616.46;109666;1253;72953;-81
2023/12/24 16:43:50;;;;;;;21.40;11.60;;;;;;;1.36;100.00;99616.20;109722;1250;62817;-83
2023/12/24 16:46:19;;;;;;;21.40;12.10;;;;;;;1.35;100.00;99620.68;109682;1250;72474;-82
2023/12/24 16:48:46;;;;;;;20.90;11.40;;;;;;;1.31;100.00;99622.94;109644;1250;60427;-83
2023/12/24 16:51:18;;;;;;;22.20;12.30;;;;;;;1.30;100.00;99628.46;109824;1249;62344;-82
2023/12/24 16:53:45;;;;;;;23.60;13.80;;;;;;;1.31;100.00;99631.52;109718;1250;73273;-81
2023/12/24 16:56:14;;;;;;;22.10;11.90;;;;;;;1.32;100.00;99630.98;109684;1250;64483;-81
2023/12/24 16:58:41;;;;;;;23.20;11.80;;;;;;;1.32;100.00;99632.66;109627;1250;72630;-82
2023/12/24 17:01:09;;;;;;;19.70;11.80;;;;;;;1.35;100.00;99631.54;109622;1250;62923;-82
2023/12/24 17:03:37;;;;;;;15.20;9.60;;;;;;;1.36;100.00;99637.89;109614;1252;60419;-80
2023/12/24 17:06:06;;;;;;;19.20;10.20;;;;;;;1.37;100.00;99638.89;109606;1253;72055;-83
2023/12/24 17:08:36;;;;;;;21.10;10.70;;;;;;;1.37;100.00;99643.17;109641;1250;62220;-82
2023/12/24 17:11:04;;;;;;;17.40;9.70;;;;;;;1.38;100.00;99646.41;109640;1250;72570;-81
2023/12/24 17:13:32;;;;;;;14.10;8.50;;;;;;;1.38;100.00;99647.42;109626;1252;59577;-82
2023/12/24 17:16:00;;;;;;;14.70;9.30;;;;;;;1.38;100.00;99650.36;109803;1250;58025;-81
2023/12/24 17:18:29;;;;;;;19.30;9.10;;;;;;;1.39;100.00;99654.13;109631;1250;71986;-81
2023/12/24 17:20:57;;;;;;;12.60;8.60;;;;;;;1.39;100.00;99660.48;109684;1250;63559;-82
2023/12/24 17:23:24;;;;;;;17.00;8.80;;;;;;;1.41;100.00;99660.92;109786;1250;72503;-82
2023/12/24 17:25:52;;;;;;;12.40;7.50;;;;;;;1.43;100.00;99664.80;109613;1252;60906;-82
2023/12/24 17:28:21;;;;;;;14.10;7.70;;;;;;;1.45;100.00;99664.93;109666;1249;58941;-81
2023/12/24 17:30:48;;;;;;;12.60;6.70;;;;;;;1.45;100.00;99670.59;109689;1249;72911;-81
2023/12/24 17:33:16;;;;;;;12.30;6.90;;;;;;;1.47;100.00;99674.98;109799;1250;62459;-81
2023/12/24 17:35:44;;;;;;;9.40;5.80;;;;;;;1.49;100.00;99681.31;109634;1250;72647;-82
2023/12/24 17:38:13;;;;;;;10.50;6.20;;;;;;;1.51;100.00;99686.39;109654;1253;60914;-81
2023/12/24 17:40:40;;;;;;;12.20;6.80;;;;;;;1.52;100.00;99685.83;109613;1250;59972;-81
2023/12/24 17:43:08;;;;;;;9.80;6.30;;;;;;;1.54;100.00;99689.05;109644;1253;71112;-84
2023/12/24 17:45:36;;;;;;;22.30;13.20;;;;;;;1.54;100.00;99691.44;109710;1250;63646;-81
2023/12/24 17:48:04;;;;;;;9.00;5.80;;;;;;;1.55;100.00;99696.91;109618;1250;71278;-79
2023/12/24 17:50:46;;;;;;;14.80;7.00;;;;;;;1.58;100.00;99703.69;109631;1250;60535;-81
2023/12/24 17:53:14;;;;;;;10.80;6.90;;;;;;;1.59;100.00;99705.89;109675;1249;60453;-80
2023/12/24 17:55:42;;;;;;;10.80;6.70;;;;;;;1.59;100.00;99704.33;109576;1251;73042;-82
2023/12/24 17:58:09;;;;;;;11.40;7.50;;;;;;;1.58;100.00;99703.32;109680;1250;63066;-82
2023/12/24 18:00:37;;;;;;;10.90;8.00;;;;;;;1.58;100.00;99705.58;109563;1249;72821;-81
2023/12/24 18:03:05;;;;;;;11.80;7.90;;;;;;;1.59;100.00;99706.42;109643;1252;60933;-81
2023/12/24 18:05:33;;;;;;;17.70;8.30;;;;;;;1.59;100.00;99705.73;109673;1250;58839;-81
2023/12/24 18:08:01;;;;;;;22.20;12.00;;;;;;;1.58;100.00;99709.56;109630;1252;74666;-82
2023/12/24 18:10:28;;;;;;;18.00;11.80;;;;;;;1.56;100.00;99711.34;109692;1250;62615;-82
2023/12/24 18:12:57;;;;;;;17.40;11.20;;;;;;;1.54;100.00;99710.92;109672;1250;72747;-81
2023/12/24 18:15:25;;;;;;;19.50;11.00;;;;;;;1.54;100.00;99709.71;109762;1250;60990;-81
2023/12/24 18:17:53;;;;;;;17.70;9.30;;;;;;;1.54;100.00;99710.92;109735;1249;60098;-82
2023/12/24 18:20:20;;;;;;;15.20;9.00;;;;;;;1.53;100.00;99714.19;109833;1249;73932;-81
2023/12/24 18:22:48;;;;;;;15.40;7.80;;;;;;;1.53;100.00;99718.86;109622;1250;63330;-81
2023/12/24 18:25:16;;;;;;;16.60;8.60;;;;;;;1.53;100.00;99722.32;109644;1249;72793;-82
2023/12/24 18:27:43;;;;;;;20.50;10.80;;;;;;;1.54;100.00;99724.52;109620;1252;61815;-80
2023/12/24 18:30:12;;;;;;;16.40;8.30;;;;;;;1.54;100.00;99720.90;109762;1249;59012;-82
2023/12/24 18:32:39;;;;;;;17.70;9.20;;;;;;;1.55;100.00;99722.56;109703;1249;73858;-81
2023/12/24 18:35:07;;;;;;;11.00;7.10;;;;;;;1.55;100.00;99723.61;109756;1250;62384;-83
2023/12/24 18:37:35;;;;;;;11.60;7.50;;;;;;;1.54;100.00;99723.32;109685;1250;71845;-82
2023/12/24 18:40:04;;;;;;;15.50;8.30;;;;;;;1.54;100.00;99727.45;109649;1249;60503;-82
2023/12/24 18:42:31;;;;;;;11.60;6.80;;;;;;;1.55;100.00;99729.64;109668;1250;58838;-81
2023/12/24 18:44:59;;;;;;;12.90;8.20;;;;;;;1.56;100.00;99734.08;109664;1249;73767;-81
2023/12/24 18:47:27;;;;;;;14.00;7.90;;;;;;;1.57;100.00;99733.00;109659;1249;61899;-82
2023/12/24 18:49:55;;;;;;;15.10;9.30;;;;;;;1.58;100.00;99735.56;109657;1250;72731;-83
2023/12/24 18:52:22;;;;;;;18.70;9.50;;;;;;;1.59;100.00;99736.72;109719;1250;59568;-82
2023/12/24 18:54:50;;;;;;;16.40;10.30;;;;;;;1.61;100.00;99735.45;109665;1249;58137;-81
2023/12/24 18:57:17;;;;;;;18.30;9.70;;;;;;;1.62;100.00;99737.82;109610;1249;74294;-83
2023/12/24 18:59:44;;;;;;;18.70;9.80;;;;;;;1.62;100.00;99740.77;109673;1249;62331;-82
2023/12/24 19:02:12;;;;;;;20.30;12.50;;;;;;;1.63;100.00;99743.28;109585;1250;72471;-83
2023/12/24 19:04:40;;;;;;;20.00;11.40;;;;;;;1.65;100.00;99743.90;109637;1252;60846;-82
2023/12/24 19:07:07;;;;;;;16.20;9.40;;;;;;;1.67;100.00;99751.09;109721;1251;59102;-83
2023/12/24 19:09:36;;;;;;;15.70;8.80;;;;;;;1.67;100.00;99755.73;109624;1250;73898;-83
2023/12/24 19:12:04;;;;;;;14.60;8.50;;;;;;;1.66;100.00;99754.90;109669;1250;62284;-81
2023/12/24 19:14:31;;;;;;;17.10;9.40;;;;;;;1.67;100.00;99764.86;109678;1250;72523;-83
2023/12/24 19:16:58;;;;;;;14.70;8.70;;;;;;;1.66;100.00;99767.11;109684;1250;59578;-82
2023/12/24 19:19:26;;;;;;;14.60;8.20;;;;;;;1.64;100.00;99772.01;109638;1250;58775;-83
2023/12/24 19:21:55;;;;;;;14.90;7.30;;;;;;;1.63;100.00;99773.47;109648;1250;73914;-83
2023/12/24 19:24:24;;;;;;;16.00;9.30;;;;;;;1.62;100.00;99773.13;109681;1249;62360;-81
2023/12/24 19:26:52;;;;;;;16.00;8.20;;;;;;;1.62;100.00;99776.41;109632;1249;72573;-82
2023/12/24 19:29:19;;;;;;;12.00;7.40;;;;;;;1.62;100.00;99779.69;109700;1250;60897;-82
2023/12/24 19:31:48;;;;;;;14.40;8.10;;;;;;;1.61;100.00;99777.46;109628;1249;60856;-84
2023/12/24 19:34:15;;;;;;;11.60;7.90;;;;;;;1.61;100.00;99780.90;109630;1249;74427;-81
2023/12/24 19:36:45;;;;;;;19.20;10.40;;;;;;;1.61;100.00;99785.05;109674;1250;62638;-80
2023/12/24 19:39:13;;;;;;;18.10;11.60;;;;;;;1.62;100.00;99788.64;109633;1252;74920;-82
2023/12/24 19:41:41;;;;;;;16.60;10.60;;;;;;;1.63;100.00;99795.66;109694;1252;59613;-83
2023/12/24 19:44:08;;;;;;;15.00;10.00;;;;;;;1.62;100.00;99800.70;109744;1250;61057;-82
2023/12/24 19:46:36;;;;;;;20.10;11.00;;;;;;;1.62;100.00;99800.70;109644;1250;74138;-83
2023/12/24 19:49:03;;;;;;;20.00;11.60;;;;;;;1.62;100.00;99804.66;109606;1250;65022;-83
2023/12/24 19:51:32;;;;;;;19.20;11.70;;;;;;;1.62;100.00;99807.94;109595;1250;75079;-81
2023/12/24 19:53:59;;;;;;;17.10;10.90;;;;;;;1.61;100.00;99806.77;109621;1252;60058;-82
2023/12/24 19:56:27;;;;;;;20.10;10.60;;;;;;;1.62;100.00;99809.32;109667;1250;58813;-83
2023/12/24 19:58:54;;;;;;;16.60;10.30;;;;;;;1.64;100.00;99807.70;109624;1250;73791;-82
2023/12/24 20:01:22;;;;;;;19.30;10.00;;;;;;;1.64;100.00;99811.64;109780;1250;62192;-81
2023/12/24 20:04:05;;;;;;;21.80;10.50;;;;;;;1.61;100.00;99808.46;109667;1250;71544;-80
2023/12/24 20:06:36;;;;;;;18.50;10.40;;;;;;;1.60;100.00;99809.73;109692;1252;60746;-81
2023/12/24 20:09:05;;;;;;;20.60;11.60;;;;;;;1.59;100.00;99810.47;109648;1250;58806;-81
2023/12/24 20:11:32;;;;;;;15.50;9.50;;;;;;;1.59;100.00;99811.98;109645;1250;73843;-82
2023/12/24 20:14:00;;;;;;;22.30;12.30;;;;;;;1.58;100.00;99811.34;109677;1250;62526;-83
2023/12/24 20:16:27;;;;;;;20.60;10.70;;;;;;;1.57;100.00;99814.84;109669;1250;71594;-84
2023/12/24 20:18:55;;;;;;;25.10;12.40;;;;;;;1.54;100.00;99812.73;109677;1250;59698;-82
2023/12/24 20:21:23;;;;;;;23.90;11.10;;;;;;;1.51;100.00;99815.75;109695;1250;59989;-81
2023/12/24 20:23:50;;;;;;;18.90;11.00;;;;;;;1.47;100.00;99815.89;109678;1249;74002;-82
2023/12/24 20:26:18;;;;;;;19.70;12.00;;;;;;;1.42;100.00;99812.79;109679;1250;63983;-83
2023/12/24 20:28:46;;;;;;;18.50;10.40;;;;;;;1.39;100.00;99816.35;109758;1249;70594;-82
2023/12/24 20:31:13;;;;;;;19.90;11.10;;;;;;;1.34;100.00;99820.64;109603;1254;61940;-81
2023/12/24 20:33:41;;;;;;;15.80;9.30;;;;;;;1.29;100.00;99820.31;109663;1250;61337;-82
2023/12/24 20:36:14;;;;;;;17.10;10.00;;;;;;;1.24;100.00;99825.63;109638;1251;73050;-81
2023/12/24 20:38:41;;;;;;;17.80;9.60;;;;;;;1.21;100.00;99829.70;109643;1250;63933;-82
2023/12/24 20:41:09;;;;;;;17.80;9.50;;;;;;;1.18;100.00;99832.41;109638;1251;72394;-81
2023/12/24 20:43:37;;;;;;;22.20;10.90;;;;;;;1.13;100.00;99833.91;109656;1250;62978;-81
2023/12/24 20:46:05;;;;;;;23.10;10.40;;;;;;;1.09;100.00;99835.27;109680;1250;60860;-80
2023/12/24 20:48:33;;;;;;;20.70;11.00;;;;;;;1.06;100.00;99837.46;109709;1250;72557;-80
2023/12/24 20:51:00;;;;;;;17.90;10.50;;;;;;;1.01;100.00;99837.08;109811;1249;62645;-80
2023/12/24 20:53:30;;;;;;;20.10;11.40;;;;;;;0.96;100.00;99836.22;109605;1250;72680;-81
2023/12/24 20:55:58;;;;;;;19.20;11.30;;;;;;;0.92;100.00;99836.20;109793;1249;60898;-80
2023/12/24 20:58:25;;;;;;;26.00;11.40;;;;;;;0.87;100.00;99840.47;109729;1250;60028;-81
2023/12/24 21:00:54;;;;;;;22.70;11.30;;;;;;;0.83;100.00;99841.65;109694;1249;73946;-81
2023/12/24 21:03:22;;;;;;;16.30;9.50;;;;;;;0.78;100.00;99840.77;109711;1249;63715;-81
2023/12/24 21:05:49;;;;;;;19.10;9.70;;;;;;;0.73;100.00;99847.48;109657;1250;70139;-80
2023/12/24 21:08:18;;;;;;;13.70;9.60;;;;;;;0.67;100.00;99850.94;109637;1250;60942;-80
2023/12/24 21:10:46;;;;;;;16.30;10.00;;;;;;;0.62;100.00;99851.77;109669;1252;58274;-80
2023/12/24 21:13:14;;;;;;;14.80;9.10;;;;;;;0.60;100.00;99856.82;109639;1250;74340;-81
2023/12/24 21:15:42;;;;;;;17.90;9.70;;;;;;;0.57;100.00;99856.91;109642;1249;62248;-80
2023/12/24 21:18:09;;;;;;;13.60;8.90;;;;;;;0.56;100.00;99859.02;109596;1250;71650;-80